createdAt,value
2022-07-30T00:01:52.926Z,2.95
2022-07-30T00:04:20.404Z,3.00
2022-07-30T00:06:47.398Z,3.22
2022-07-30T00:09:14.443Z,3.38
2022-07-30T00:11:41.511Z,3.17
2022-07-30T00:14:08.519Z,3.38
2022-07-30T00:16:35.532Z,3.03
2022-07-30T00:19:02.843Z,3.70
2022-07-30T00:21:36.273Z,3.65
2022-07-30T00:24:06.726Z,3.28
2022-07-30T00:26:33.618Z,3.00
2022-07-30T00:29:00.651Z,3.13
2022-07-30T00:31:28.914Z,3.05
2022-07-30T00:33:55.943Z,3.45
2022-07-30T00:36:23.209Z,2.90
2022-07-30T00:38:50.466Z,2.95
2022-07-30T00:41:17.468Z,3.53
2022-07-30T00:43:45.384Z,2.97
2022-07-30T00:46:14.811Z,2.85
2022-07-30T00:48:42.404Z,3.13
2022-07-30T00:51:09.750Z,3.25
2022-07-30T00:53:37.095Z,4.05
2022-07-30T00:56:04.904Z,3.20
2022-07-30T00:58:31.838Z,3.13
2022-07-30T01:00:59.226Z,3.22
2022-07-30T01:03:26.179Z,3.60
2022-07-30T01:05:53.046Z,4.05
2022-07-30T01:08:19.942Z,3.60
2022-07-30T01:10:46.777Z,4.13
2022-07-30T01:13:13.837Z,4.18
2022-07-30T01:15:41.504Z,3.65
2022-07-30T01:18:11.552Z,3.38
2022-07-30T01:21:04.077Z,3.08
2022-07-30T01:23:43.265Z,3.20
2022-07-30T01:26:14.557Z,3.20
2022-07-30T01:28:45.938Z,3.70
2022-07-30T01:31:14.555Z,3.55
2022-07-30T01:33:44.910Z,3.78
2022-07-30T01:36:15.937Z,3.60
2022-07-30T01:38:45.483Z,3.80
2022-07-30T01:41:15.492Z,4.35
2022-07-30T01:43:45.179Z,6.00
2022-07-30T01:46:14.702Z,10.32
2022-07-30T01:48:44.508Z,10.65
2022-07-30T01:51:13.383Z,12.10
2022-07-30T01:53:46.074Z,9.85
2022-07-30T01:56:16.632Z,9.85
2022-07-30T01:58:46.957Z,9.80
2022-07-30T02:01:20.106Z,10.02
2022-07-30T02:03:47.665Z,8.82
2022-07-30T02:06:21.226Z,9.40
2022-07-30T02:08:56.435Z,10.52
2022-07-30T02:11:44.366Z,9.48
2022-07-30T02:14:26.887Z,9.55
2022-07-30T02:16:59.141Z,9.15
2022-07-30T02:19:36.746Z,7.95
2022-07-30T02:22:11.693Z,7.90
2022-07-30T02:24:42.952Z,7.82
2022-07-30T02:27:23.015Z,9.02
2022-07-30T02:29:54.303Z,8.50
2022-07-30T02:32:24.599Z,9.90
2022-07-30T02:35:01.568Z,8.63
2022-07-30T02:37:41.722Z,9.20
2022-07-30T02:40:16.119Z,8.55
2022-07-30T02:42:45.766Z,9.13
2022-07-30T02:45:17.959Z,8.95
2022-07-30T02:48:01.144Z,10.18
2022-07-30T02:50:29.757Z,10.45
2022-07-30T02:52:59.419Z,12.77
2022-07-30T02:55:29.660Z,13.18
2022-07-30T02:57:57.657Z,13.32
2022-07-30T03:00:25.808Z,14.45
2022-07-30T03:02:56.735Z,14.20
2022-07-30T03:05:25.721Z,17.05
2022-07-30T03:07:56.462Z,18.10
2022-07-30T03:10:25.262Z,17.02
2022-07-30T03:12:53.080Z,18.40
2022-07-30T03:15:20.166Z,17.45
2022-07-30T03:17:54.095Z,18.38
2022-07-30T03:20:31.707Z,16.42
2022-07-30T03:23:01.501Z,16.25
2022-07-30T03:25:30.747Z,16.38
2022-07-30T03:28:01.565Z,16.38
2022-07-30T03:30:29.269Z,17.85
2022-07-30T03:32:56.526Z,17.35
2022-07-30T03:35:31.219Z,16.23
2022-07-30T03:38:00.137Z,16.45
2022-07-30T03:40:28.642Z,16.75
2022-07-30T03:42:56.030Z,17.00
2022-07-30T03:45:25.177Z,18.77
2022-07-30T03:47:57.868Z,19.17
2022-07-30T03:50:25.342Z,16.95
2022-07-30T03:52:53.255Z,17.17
2022-07-30T03:55:20.408Z,15.63
2022-07-30T03:57:50.242Z,18.00
2022-07-30T04:00:19.917Z,15.45
2022-07-30T04:02:52.029Z,16.42
2022-07-30T04:05:41.083Z,16.35
2022-07-30T04:08:10.560Z,16.33
2022-07-30T04:10:38.628Z,16.77
2022-07-30T04:13:31.505Z,16.85
2022-07-30T04:16:41.231Z,17.25
2022-07-30T04:18:58.320Z,19.40
2022-07-30T04:21:26.906Z,22.90
2022-07-30T04:24:02.371Z,22.48
2022-07-30T04:26:37.661Z,22.58
2022-07-30T04:29:08.129Z,22.60
2022-07-30T04:31:38.431Z,22.55
2022-07-30T04:34:26.775Z,23.08
2022-07-30T04:36:54.113Z,21.75
2022-07-30T04:39:21.068Z,20.83
2022-07-30T04:41:49.538Z,20.98
2022-07-30T04:44:38.332Z,18.88
2022-07-30T04:47:26.694Z,18.92
2022-07-30T04:50:20.559Z,18.30
2022-07-30T04:52:48.677Z,19.33
2022-07-30T04:55:23.280Z,18.98
2022-07-30T04:57:53.032Z,18.52
2022-07-30T05:00:20.067Z,17.75
2022-07-30T05:02:49.060Z,18.65
2022-07-30T05:05:17.716Z,17.88
2022-07-30T05:07:46.510Z,18.13
2022-07-30T05:10:14.527Z,16.48
2022-07-30T05:12:42.712Z,17.40
2022-07-30T05:15:11.188Z,17.52
2022-07-30T05:17:38.663Z,17.20
2022-07-30T05:20:09.780Z,16.95
2022-07-30T05:22:59.674Z,17.33
2022-07-30T05:25:26.764Z,16.48
2022-07-30T05:27:59.782Z,16.15
2022-07-30T05:30:27.630Z,14.70
2022-07-30T05:32:57.226Z,14.55
2022-07-30T05:35:24.929Z,13.93
2022-07-30T05:37:51.833Z,12.23
2022-07-30T05:40:19.868Z,14.45
2022-07-30T05:43:03.500Z,12.63
2022-07-30T05:45:30.621Z,13.57
2022-07-30T05:47:57.613Z,12.45
2022-07-30T05:50:25.096Z,13.55
2022-07-30T05:52:52.269Z,12.88
2022-07-30T05:55:39.246Z,11.57
2022-07-30T05:58:16.141Z,11.70
2022-07-30T06:00:43.252Z,12.88
2022-07-30T06:03:10.470Z,12.27
2022-07-30T06:06:07.162Z,12.95
2022-07-30T06:08:34.877Z,10.63
2022-07-30T06:11:01.784Z,11.25
2022-07-30T06:13:29.493Z,11.88
2022-07-30T06:15:56.788Z,10.40
2022-07-30T06:18:23.739Z,10.00
2022-07-30T06:20:54.257Z,10.18
2022-07-30T06:23:32.886Z,10.50
2022-07-30T06:26:02.696Z,8.60
2022-07-30T06:28:38.799Z,8.88
2022-07-30T06:31:16.458Z,7.93
2022-07-30T06:33:43.554Z,7.70
2022-07-30T06:36:13.985Z,7.78
2022-07-30T06:39:00.014Z,8.20
2022-07-30T06:41:47.125Z,7.68
2022-07-30T06:44:15.046Z,7.53
2022-07-30T06:47:06.841Z,8.38
2022-07-30T06:49:35.884Z,6.97
2022-07-30T06:52:03.686Z,4.50
2022-07-30T06:54:30.915Z,4.32
2022-07-30T06:57:04.377Z,5.28
2022-07-30T06:59:31.540Z,4.30
2022-07-30T07:02:11.896Z,4.07
2022-07-30T07:05:11.277Z,3.85
2022-07-30T07:07:44.490Z,3.72
2022-07-30T07:10:21.102Z,3.83
2022-07-30T07:12:54.846Z,3.72
2022-07-30T07:15:36.862Z,2.95
2022-07-30T07:18:06.962Z,3.73
2022-07-30T07:20:38.711Z,3.30
2022-07-30T07:23:09.333Z,2.72
2022-07-30T07:25:40.561Z,2.90
2022-07-30T07:28:11.591Z,2.78
2022-07-30T07:30:44.745Z,3.28
2022-07-30T07:33:15.481Z,3.30
2022-07-30T07:35:49.481Z,3.17
2022-07-30T07:38:26.094Z,3.13
2022-07-30T07:40:54.830Z,3.83
2022-07-30T07:43:21.892Z,3.10
2022-07-30T07:45:49.832Z,3.50
2022-07-30T07:48:18.313Z,3.88
2022-07-30T07:50:51.682Z,3.47
2022-07-30T07:53:24.413Z,4.25
2022-07-30T07:55:52.318Z,3.72
2022-07-30T07:58:26.223Z,4.55
2022-07-30T08:00:57.312Z,3.50
2022-07-30T08:03:40.545Z,3.70
2022-07-30T08:06:26.250Z,4.28
2022-07-30T08:09:13.381Z,4.03
2022-07-30T08:12:15.625Z,3.22
2022-07-30T08:15:01.661Z,4.07
2022-07-30T08:18:00.622Z,3.85
2022-07-30T08:20:45.835Z,4.28
2022-07-30T08:23:13.883Z,3.63
2022-07-30T08:25:40.753Z,3.63
2022-07-30T08:28:07.650Z,2.53
2022-07-30T08:30:56.006Z,3.40
2022-07-30T08:33:27.530Z,3.97
2022-07-30T08:35:59.017Z,3.17
2022-07-30T08:38:26.452Z,3.33
2022-07-30T08:40:56.179Z,3.33
2022-07-30T08:43:25.419Z,2.92
2022-07-30T08:45:53.960Z,3.50
2022-07-30T08:48:35.897Z,3.70
2022-07-30T08:51:03.178Z,3.42
2022-07-30T08:53:34.225Z,3.53
2022-07-30T08:56:03.214Z,3.72
2022-07-30T08:58:36.330Z,5.03
2022-07-30T09:01:05.267Z,5.03
2022-07-30T09:03:32.833Z,5.53
2022-07-30T09:06:02.480Z,4.50
2022-07-30T09:08:29.895Z,5.10
2022-07-30T09:10:57.093Z,4.38
2022-07-30T09:13:27.817Z,3.83
2022-07-30T09:15:57.944Z,4.15
2022-07-30T09:18:29.310Z,3.70
2022-07-30T09:20:56.633Z,3.65
2022-07-30T09:23:24.390Z,3.47
2022-07-30T09:26:09.854Z,3.50
2022-07-30T09:29:16.873Z,3.67
2022-07-30T09:32:05.023Z,3.40
2022-07-30T09:34:50.707Z,3.13
2022-07-30T09:38:05.897Z,3.10
2022-07-30T09:41:17.230Z,3.45
2022-07-30T09:44:07.835Z,4.18
2022-07-30T09:46:51.607Z,4.70
2022-07-30T09:49:28.222Z,4.50
2022-07-30T09:52:00.337Z,4.97
2022-07-30T09:54:52.994Z,4.95
2022-07-30T09:57:27.940Z,4.85
2022-07-30T10:00:37.643Z,5.57
2022-07-30T10:03:41.577Z,5.22
2022-07-30T10:06:44.119Z,5.40
2022-07-30T10:09:32.073Z,4.97
2022-07-30T10:14:42.885Z,5.72
2022-07-30T10:17:13.412Z,6.78
2022-07-30T10:19:42.780Z,6.53
2022-07-30T10:22:28.768Z,5.35
2022-07-30T10:25:11.681Z,4.95
2022-07-30T10:28:22.791Z,5.60
2022-07-30T10:30:52.764Z,3.95
2022-07-30T10:33:36.619Z,4.35
2022-07-30T10:36:11.695Z,3.33
2022-07-30T10:38:41.629Z,3.92
2022-07-30T10:41:44.324Z,4.03
2022-07-30T10:44:36.529Z,3.70
2022-07-30T10:47:09.412Z,2.67
2022-07-30T10:49:41.226Z,3.40
2022-07-30T10:52:10.911Z,3.45
2022-07-30T10:54:45.585Z,3.85
2022-07-30T10:57:23.083Z,2.92
2022-07-30T11:00:03.788Z,2.90
2022-07-30T11:02:35.571Z,4.18
2022-07-30T11:05:18.679Z,3.55
2022-07-30T11:08:42.859Z,3.47
2022-07-30T11:12:01.821Z,3.25
2022-07-30T11:14:48.335Z,3.35
2022-07-30T11:17:19.802Z,2.83
2022-07-30T11:20:11.709Z,3.38
2022-07-30T11:22:41.088Z,3.63
2022-07-30T11:25:49.927Z,3.47
2022-07-30T11:28:38.172Z,3.75
2022-07-30T11:31:37.116Z,4.07
2022-07-30T11:34:20.071Z,3.50
2022-07-30T11:37:18.056Z,3.78
2022-07-30T11:39:58.040Z,3.55
2022-07-30T11:42:35.885Z,3.20
2022-07-30T11:45:18.409Z,3.35
2022-07-30T11:47:51.434Z,2.70
2022-07-30T11:50:19.539Z,3.22
2022-07-30T11:52:51.520Z,3.20
2022-07-30T11:55:32.688Z,3.00
2022-07-30T11:58:01.335Z,5.50
2022-07-30T12:00:37.414Z,2.60
2022-07-30T12:03:12.629Z,2.40
2022-07-30T12:05:40.562Z,2.10
2022-07-30T12:08:07.707Z,1.98
2022-07-30T12:10:39.566Z,2.40
2022-07-30T12:13:15.173Z,2.03
2022-07-30T12:15:44.930Z,7.32
2022-07-30T12:18:28.980Z,6.38
2022-07-30T12:21:00.816Z,5.47
2022-07-30T12:23:29.537Z,5.35
2022-07-30T12:25:58.082Z,5.13
2022-07-30T12:28:31.420Z,6.60
2022-07-30T12:31:00.160Z,6.90
2022-07-30T12:33:27.072Z,6.25
2022-07-30T12:35:59.020Z,2.50
2022-07-30T12:38:27.508Z,7.60
2022-07-30T12:40:55.625Z,8.55
2022-07-30T12:43:46.353Z,9.70
2022-07-30T12:46:16.693Z,7.82
2022-07-30T12:48:49.819Z,7.13
2022-07-30T12:51:17.075Z,7.93
2022-07-30T12:53:44.152Z,8.10
2022-07-30T12:56:30.968Z,7.88
2022-07-30T12:58:59.400Z,5.88
2022-07-30T13:01:47.099Z,6.05
2022-07-30T13:04:16.935Z,6.93
2022-07-30T13:06:43.838Z,7.43
2022-07-30T13:09:20.846Z,8.52
2022-07-30T13:11:49.351Z,7.00
2022-07-30T13:14:17.363Z,5.78
2022-07-30T13:16:44.523Z,6.72
2022-07-30T13:19:12.247Z,6.93
2022-07-30T13:21:40.504Z,6.97
2022-07-30T13:24:18.139Z,5.50
2022-07-30T13:26:45.679Z,8.32
2022-07-30T13:29:13.659Z,8.18
2022-07-30T13:31:42.628Z,8.55
2022-07-30T13:34:11.035Z,9.00
2022-07-30T13:36:38.179Z,9.07
2022-07-30T13:39:05.097Z,8.60
2022-07-30T13:41:33.191Z,9.98
2022-07-30T13:44:00.163Z,8.93
2022-07-30T13:46:27.018Z,7.22
2022-07-30T13:48:54.939Z,8.05
2022-07-30T13:51:21.952Z,7.32
2022-07-30T13:53:48.939Z,7.50
2022-07-30T13:56:16.796Z,6.75
2022-07-30T13:58:46.910Z,5.50
2022-07-30T14:01:17.813Z,5.85
2022-07-30T14:03:49.899Z,5.10
2022-07-30T14:06:18.478Z,6.47
2022-07-30T14:08:45.419Z,6.45
2022-07-30T14:11:12.534Z,5.43
2022-07-30T14:13:39.456Z,4.70
2022-07-30T14:16:22.747Z,4.60
2022-07-30T14:18:53.642Z,4.80
2022-07-30T14:21:20.513Z,3.22
2022-07-30T14:23:47.866Z,3.67
2022-07-30T14:26:15.117Z,4.07
2022-07-30T14:28:42.112Z,4.93
2022-07-30T14:31:08.996Z,3.75
2022-07-30T14:33:36.047Z,4.75
2022-07-30T14:36:02.970Z,3.95
2022-07-30T14:38:29.835Z,5.05
2022-07-30T14:40:56.961Z,5.57
2022-07-30T14:43:24.937Z,5.07
2022-07-30T14:45:53.356Z,5.20
2022-07-30T14:48:20.640Z,4.55
2022-07-30T14:51:11.643Z,4.97
2022-07-30T14:53:34.633Z,3.50
2022-07-30T14:56:01.559Z,3.10
2022-07-30T14:58:28.693Z,2.72
2022-07-30T15:00:55.695Z,2.05
2022-07-30T15:03:23.396Z,2.20
2022-07-30T15:05:53.027Z,2.00
2022-07-30T15:08:20.051Z,1.85
2022-07-30T15:10:46.935Z,1.63
2022-07-30T15:13:15.923Z,2.17
2022-07-30T15:15:43.257Z,2.10
2022-07-30T15:18:13.315Z,2.47
2022-07-30T15:20:40.211Z,2.08
2022-07-30T15:23:11.646Z,2.05
2022-07-30T15:25:41.132Z,2.10
2022-07-30T15:28:08.002Z,1.80
2022-07-30T15:30:36.703Z,2.50
2022-07-30T15:33:03.670Z,1.80
2022-07-30T15:35:30.641Z,1.98
2022-07-30T15:37:59.098Z,2.20
2022-07-30T15:40:26.157Z,1.63
2022-07-30T15:42:53.115Z,2.13
2022-07-30T15:45:20.260Z,1.65
2022-07-30T15:47:47.214Z,2.40
2022-07-30T15:50:15.540Z,2.72
2022-07-30T15:52:42.418Z,2.40
2022-07-30T15:55:09.633Z,3.15
2022-07-30T15:57:36.777Z,2.60
2022-07-30T16:00:05.562Z,2.95
2022-07-30T16:02:39.874Z,2.95
2022-07-30T16:05:11.791Z,3.67
2022-07-30T16:07:40.521Z,3.97
2022-07-30T16:10:07.798Z,2.92
2022-07-30T16:12:34.725Z,3.65
2022-07-30T16:15:01.891Z,4.18
2022-07-30T16:17:28.908Z,3.88
2022-07-30T16:19:55.814Z,4.00
2022-07-30T16:22:24.271Z,3.80
2022-07-30T16:24:51.533Z,3.72
2022-07-30T16:27:18.786Z,3.80
2022-07-30T16:29:45.730Z,3.25
2022-07-30T16:32:12.599Z,3.50
2022-07-30T16:34:39.487Z,3.28
2022-07-30T16:37:06.381Z,3.30
2022-07-30T16:39:33.249Z,2.20
2022-07-30T16:42:00.661Z,2.30
2022-07-30T16:44:31.694Z,2.78
2022-07-30T16:46:58.662Z,2.75
2022-07-30T16:49:26.110Z,2.67
2022-07-30T16:51:54.238Z,3.03
2022-07-30T16:54:21.418Z,2.80
2022-07-30T16:56:52.774Z,2.50
2022-07-30T16:59:20.743Z,2.85
2022-07-30T17:01:48.605Z,2.47
2022-07-30T17:04:16.110Z,2.20
2022-07-30T17:06:44.547Z,2.33
2022-07-30T17:09:15.719Z,1.80
2022-07-30T17:11:47.232Z,2.30
2022-07-30T17:14:22.250Z,2.42
2022-07-30T17:16:50.253Z,2.53
2022-07-30T17:19:17.411Z,2.33
2022-07-30T17:21:44.759Z,2.30
2022-07-30T17:24:13.510Z,2.00
2022-07-30T17:26:43.233Z,1.90
2022-07-30T17:29:15.030Z,1.98
2022-07-30T17:31:46.178Z,1.88
2022-07-30T17:34:15.176Z,2.33
2022-07-30T17:36:51.630Z,2.00
2022-07-30T17:40:26.658Z,2.30
2022-07-30T17:42:10.569Z,2.40
2022-07-30T17:44:39.416Z,2.20
2022-07-30T17:47:11.023Z,2.17
2022-07-30T17:49:41.108Z,2.33
2022-07-30T17:52:08.846Z,2.15
2022-07-30T17:54:36.069Z,2.08
2022-07-30T17:57:03.309Z,2.40
2022-07-30T17:59:30.432Z,2.42
2022-07-30T18:01:59.856Z,2.63
2022-07-30T18:04:27.418Z,2.75
2022-07-30T18:06:54.530Z,2.95
2022-07-30T18:09:21.804Z,3.20
2022-07-30T18:11:49.364Z,3.17
2022-07-30T18:14:16.358Z,3.00
2022-07-30T18:16:43.621Z,3.78
2022-07-30T18:19:22.627Z,3.60
2022-07-30T18:21:55.139Z,3.95
2022-07-30T18:24:24.603Z,3.70
2022-07-30T18:26:52.579Z,4.50
2022-07-30T18:29:19.578Z,3.97
2022-07-30T18:31:48.518Z,3.60
2022-07-30T18:34:15.575Z,3.65
2022-07-30T18:36:42.701Z,4.10
2022-07-30T18:39:09.964Z,3.90
2022-07-30T18:41:36.982Z,4.22
2022-07-30T18:44:04.298Z,4.40
2022-07-30T18:46:31.453Z,4.28
2022-07-30T18:49:10.623Z,4.10
2022-07-30T18:51:45.558Z,3.75
2022-07-30T18:54:12.552Z,3.78
2022-07-30T18:56:39.541Z,3.88
2022-07-30T18:59:06.586Z,3.63
2022-07-30T19:01:33.679Z,3.80
2022-07-30T19:04:00.624Z,3.50
2022-07-30T19:06:27.768Z,3.70
2022-07-30T19:08:54.805Z,3.83
2022-07-30T19:11:21.851Z,4.07
2022-07-30T19:13:48.927Z,3.33
2022-07-30T19:16:15.950Z,3.28
2022-07-30T19:18:42.928Z,3.65
2022-07-30T19:21:13.943Z,3.10
2022-07-30T19:23:41.527Z,2.90
2022-07-30T19:26:08.586Z,3.50
2022-07-30T19:28:36.427Z,3.38
2022-07-30T19:31:03.403Z,2.58
2022-07-30T19:33:30.383Z,3.00
2022-07-30T19:35:57.410Z,2.60
2022-07-30T19:38:24.546Z,2.95
2022-07-30T19:40:52.287Z,3.20
2022-07-30T19:43:24.024Z,2.85
2022-07-30T19:45:51.778Z,2.88
2022-07-30T19:48:29.262Z,2.55
2022-07-30T19:53:46.771Z,3.17
2022-07-30T19:56:13.938Z,3.28
2022-07-30T19:58:41.652Z,2.83
2022-07-30T20:01:10.132Z,2.55
2022-07-30T20:03:39.167Z,2.80
2022-07-30T20:06:08.006Z,3.08
2022-07-30T20:08:38.900Z,2.70
2022-07-30T20:11:07.446Z,2.97
2022-07-30T20:13:44.093Z,2.75
2022-07-30T20:16:14.573Z,2.75
2022-07-30T20:18:42.800Z,2.78
2022-07-30T20:21:14.643Z,3.20
2022-07-30T20:23:42.921Z,2.58
2022-07-30T20:26:13.515Z,2.60
2022-07-30T20:28:45.691Z,2.55
2022-07-30T20:31:13.245Z,2.38
2022-07-30T20:33:40.491Z,2.42
2022-07-30T20:36:10.112Z,2.30
2022-07-30T20:38:39.051Z,2.50
2022-07-30T20:41:10.295Z,2.22
2022-07-30T20:43:46.087Z,2.70
2022-07-30T20:46:20.681Z,2.53
2022-07-30T20:48:53.936Z,2.88
2022-07-30T20:51:20.908Z,2.55
2022-07-30T20:53:49.380Z,2.70
2022-07-30T20:59:06.414Z,2.60
2022-07-30T21:01:33.359Z,2.58
2022-07-30T21:04:02.103Z,2.53
2022-07-30T21:06:30.143Z,2.70
2022-07-30T21:08:57.045Z,2.47
2022-07-30T21:11:24.168Z,2.63
2022-07-30T21:13:53.063Z,2.20
2022-07-30T21:16:23.589Z,2.47
2022-07-30T21:18:50.825Z,2.40
2022-07-30T21:21:30.479Z,2.40
2022-07-30T21:24:05.819Z,2.42
2022-07-30T21:26:41.906Z,3.08
2022-07-30T21:29:09.684Z,2.63
2022-07-30T21:32:02.190Z,2.50
2022-07-30T21:34:26.330Z,2.55
2022-07-30T21:36:53.966Z,2.45
2022-07-30T21:39:28.815Z,3.22
2022-07-30T21:41:56.346Z,2.80
2022-07-30T21:44:23.752Z,3.03
2022-07-30T21:46:50.813Z,3.40
2022-07-30T21:49:17.833Z,3.05
2022-07-30T21:51:44.857Z,2.78
2022-07-30T21:54:13.900Z,2.60
2022-07-30T21:56:44.238Z,2.70
2022-07-30T21:59:11.515Z,3.00
2022-07-30T22:01:38.658Z,2.88
2022-07-30T22:04:07.773Z,2.97
2022-07-30T22:06:40.486Z,3.80
2022-07-30T22:09:26.347Z,3.00
2022-07-30T22:12:06.325Z,3.20
2022-07-30T22:14:36.231Z,3.08
2022-07-30T22:17:04.327Z,3.22
2022-07-30T22:19:31.704Z,2.80
2022-07-30T22:22:00.196Z,3.42
2022-07-30T22:24:32.116Z,3.28
2022-07-30T22:27:12.470Z,3.22
2022-07-30T22:29:43.526Z,2.72
2022-07-30T22:32:11.965Z,2.75
2022-07-30T22:34:39.446Z,2.78
2022-07-30T22:37:12.635Z,2.45
2022-07-30T22:39:51.906Z,2.60
2022-07-30T22:42:24.015Z,2.83
2022-07-30T22:44:52.655Z,2.83
2022-07-30T22:47:50.364Z,3.03
2022-07-30T22:50:08.109Z,2.75
2022-07-30T22:52:39.639Z,2.80
2022-07-30T22:55:09.069Z,3.30
2022-07-30T23:00:27.487Z,3.67
2022-07-30T23:03:12.212Z,3.65
2022-07-30T23:05:56.701Z,4.07
2022-07-30T23:08:29.517Z,4.43
2022-07-30T23:10:59.978Z,4.07
2022-07-30T23:12:16.804Z,2.97
2022-07-30T23:12:30.811Z,3.13
2022-07-30T23:12:31.606Z,2.53
2022-07-30T23:13:28.415Z,3.33
2022-07-30T23:15:55.564Z,4.57
2022-07-30T23:18:22.774Z,4.50
2022-07-30T23:20:49.897Z,4.25
2022-07-30T23:23:17.146Z,4.47
2022-07-30T23:25:44.364Z,4.20
2022-07-30T23:28:11.796Z,4.80
2022-07-30T23:30:38.911Z,4.20
2022-07-30T23:33:06.056Z,4.50
2022-07-30T23:35:33.824Z,5.13
2022-07-30T23:38:01.055Z,4.78
2022-07-30T23:40:28.593Z,4.70
2022-07-30T23:42:55.888Z,5.57
2022-07-30T23:45:24.335Z,5.07
2022-07-30T23:48:00.965Z,4.93
2022-07-30T23:50:33.444Z,4.95
2022-07-30T23:53:01.915Z,4.93
2022-07-30T23:55:30.102Z,5.53
2022-07-30T23:57:58.325Z,5.57
